sensor_id;sensor_type;location;lat;lon;timestamp;temperature;humidity
38788;DHT22;24536;45.488;12.238;2023-02-28T00:01:05;7.70;59.10
38788;DHT22;24536;45.488;12.238;2023-02-28T00:03:30;7.70;58.60
38788;DHT22;24536;45.488;12.238;2023-02-28T00:06:03;7.70;59.20
38788;DHT22;24536;45.488;12.238;2023-02-28T00:08:29;7.60;59.50
38788;DHT22;24536;45.488;12.238;2023-02-28T00:10:55;7.60;59.30
38788;DHT22;24536;45.488;12.238;2023-02-28T00:13:20;7.60;59.20
38788;DHT22;24536;45.488;12.238;2023-02-28T00:15:46;7.40;60.20
38788;DHT22;24536;45.488;12.238;2023-02-28T00:18:12;7.50;59.30
38788;DHT22;24536;45.488;12.238;2023-02-28T00:20:38;7.60;59.80
38788;DHT22;24536;45.488;12.238;2023-02-28T00:23:04;7.60;59.60
38788;DHT22;24536;45.488;12.238;2023-02-28T00:25:30;7.60;59.40
38788;DHT22;24536;45.488;12.238;2023-02-28T00:27:56;7.60;59.60
38788;DHT22;24536;45.488;12.238;2023-02-28T00:30:22;7.60;60.20
38788;DHT22;24536;45.488;12.238;2023-02-28T00:32:49;7.60;59.90
38788;DHT22;24536;45.488;12.238;2023-02-28T00:35:15;7.60;59.90
38788;DHT22;24536;45.488;12.238;2023-02-28T00:37:41;7.50;59.60
38788;DHT22;24536;45.488;12.238;2023-02-28T00:40:07;7.50;60.00
38788;DHT22;24536;45.488;12.238;2023-02-28T00:42:34;7.50;59.90
38788;DHT22;24536;45.488;12.238;2023-02-28T00:45:00;7.50;59.60
38788;DHT22;24536;45.488;12.238;2023-02-28T00:47:27;7.60;60.20
38788;DHT22;24536;45.488;12.238;2023-02-28T00:49:52;7.60;60.00
38788;DHT22;24536;45.488;12.238;2023-02-28T00:52:18;7.60;59.90
38788;DHT22;24536;45.488;12.238;2023-02-28T00:54:44;7.60;59.80
38788;DHT22;24536;45.488;12.238;2023-02-28T00:57:09;7.50;59.00
38788;DHT22;24536;45.488;12.238;2023-02-28T00:59:35;7.60;59.70
38788;DHT22;24536;45.488;12.238;2023-02-28T01:02:01;7.60;59.60
38788;DHT22;24536;45.488;12.238;2023-02-28T01:04:26;7.70;59.70
38788;DHT22;24536;45.488;12.238;2023-02-28T01:06:52;7.70;59.60
38788;DHT22;24536;45.488;12.238;2023-02-28T01:09:18;7.60;59.10
38788;DHT22;24536;45.488;12.238;2023-02-28T01:11:43;7.70;59.70
38788;DHT22;24536;45.488;12.238;2023-02-28T01:14:13;7.70;59.70
38788;DHT22;24536;45.488;12.238;2023-02-28T01:16:39;7.50;59.50
38788;DHT22;24536;45.488;12.238;2023-02-28T01:19:04;7.60;60.00
38788;DHT22;24536;45.488;12.238;2023-02-28T01:21:30;7.60;60.20
38788;DHT22;24536;45.488;12.238;2023-02-28T01:23:57;7.60;60.20
38788;DHT22;24536;45.488;12.238;2023-02-28T01:26:23;7.50;59.60
38788;DHT22;24536;45.488;12.238;2023-02-28T01:28:50;7.60;60.20
38788;DHT22;24536;45.488;12.238;2023-02-28T01:31:17;7.60;59.80
38788;DHT22;24536;45.488;12.238;2023-02-28T01:33:43;7.50;60.20
38788;DHT22;24536;45.488;12.238;2023-02-28T01:36:13;7.60;60.20
38788;DHT22;24536;45.488;12.238;2023-02-28T01:38:39;7.60;60.20
38788;DHT22;24536;45.488;12.238;2023-02-28T01:41:06;7.70;60.20
38788;DHT22;24536;45.488;12.238;2023-02-28T01:46:10;7.70;60.00
38788;DHT22;24536;45.488;12.238;2023-02-28T01:48:43;7.70;60.20
38788;DHT22;24536;45.488;12.238;2023-02-28T01:51:17;7.80;60.40
38788;DHT22;24536;45.488;12.238;2023-02-28T01:53:49;7.70;60.40
38788;DHT22;24536;45.488;12.238;2023-02-28T01:56:20;7.70;60.40
38788;DHT22;24536;45.488;12.238;2023-02-28T01:58:52;7.70;60.10
38788;DHT22;24536;45.488;12.238;2023-02-28T02:01:19;7.80;60.10
38788;DHT22;24536;45.488;12.238;2023-02-28T02:03:53;7.70;60.30
38788;DHT22;24536;45.488;12.238;2023-02-28T02:06:30;7.70;60.40
38788;DHT22;24536;45.488;12.238;2023-02-28T02:08:56;7.60;60.70
38788;DHT22;24536;45.488;12.238;2023-02-28T02:11:23;7.70;60.60
38788;DHT22;24536;45.488;12.238;2023-02-28T02:22:03;7.60;60.50
38788;DHT22;24536;45.488;12.238;2023-02-28T02:37:49;7.60;60.20
38788;DHT22;24536;45.488;12.238;2023-02-28T02:40:20;7.60;60.60
38788;DHT22;24536;45.488;12.238;2023-02-28T02:45:24;7.60;60.60
38788;DHT22;24536;45.488;12.238;2023-02-28T02:47:51;7.60;60.80
38788;DHT22;24536;45.488;12.238;2023-02-28T02:50:25;7.60;60.20
38788;DHT22;24536;45.488;12.238;2023-02-28T02:52:56;7.60;60.50
38788;DHT22;24536;45.488;12.238;2023-02-28T02:55:23;7.60;60.70
38788;DHT22;24536;45.488;12.238;2023-02-28T02:57:56;7.70;60.60
38788;DHT22;24536;45.488;12.238;2023-02-28T03:00:30;7.70;60.70
38788;DHT22;24536;45.488;12.238;2023-02-28T03:02:58;7.70;60.70
38788;DHT22;24536;45.488;12.238;2023-02-28T03:05:46;7.70;60.30
38788;DHT22;24536;45.488;12.238;2023-02-28T03:08:13;7.60;60.80
38788;DHT22;24536;45.488;12.238;2023-02-28T03:10:45;7.60;60.90
38788;DHT22;24536;45.488;12.238;2023-02-28T03:13:54;7.70;60.10
38788;DHT22;24536;45.488;12.238;2023-02-28T03:22:20;7.80;60.50
38788;DHT22;24536;45.488;12.238;2023-02-28T03:25:14;7.80;60.60
38788;DHT22;24536;45.488;12.238;2023-02-28T03:30:41;7.80;60.30
38788;DHT22;24536;45.488;12.238;2023-02-28T03:35:48;7.80;60.50
38788;DHT22;24536;45.488;12.238;2023-02-28T03:38:20;7.80;60.30
38788;DHT22;24536;45.488;12.238;2023-02-28T03:40:53;7.80;60.50
38788;DHT22;24536;45.488;12.238;2023-02-28T03:43:27;7.80;60.90
38788;DHT22;24536;45.488;12.238;2023-02-28T03:45:54;7.80;60.80
38788;DHT22;24536;45.488;12.238;2023-02-28T03:48:44;7.80;60.90
38788;DHT22;24536;45.488;12.238;2023-02-28T03:51:15;7.70;60.40
38788;DHT22;24536;45.488;12.238;2023-02-28T03:53:46;7.70;60.90
38788;DHT22;24536;45.488;12.238;2023-02-28T03:56:17;7.70;60.80
38788;DHT22;24536;45.488;12.238;2023-02-28T03:59:02;7.80;60.50
38788;DHT22;24536;45.488;12.238;2023-02-28T04:01:42;7.80;60.30
38788;DHT22;24536;45.488;12.238;2023-02-28T04:04:09;7.80;60.80
38788;DHT22;24536;45.488;12.238;2023-02-28T04:06:35;7.80;60.80
38788;DHT22;24536;45.488;12.238;2023-02-28T04:09:03;7.80;60.20
38788;DHT22;24536;45.488;12.238;2023-02-28T04:13:57;7.80;60.60
38788;DHT22;24536;45.488;12.238;2023-02-28T04:16:23;7.70;60.80
38788;DHT22;24536;45.488;12.238;2023-02-28T04:18:49;7.70;61.20
38788;DHT22;24536;45.488;12.238;2023-02-28T04:21:15;7.70;61.20
38788;DHT22;24536;45.488;12.238;2023-02-28T04:23:40;7.70;61.30
38788;DHT22;24536;45.488;12.238;2023-02-28T04:26:06;7.70;61.30
38788;DHT22;24536;45.488;12.238;2023-02-28T04:28:32;7.70;60.80
38788;DHT22;24536;45.488;12.238;2023-02-28T04:31:03;7.70;61.30
38788;DHT22;24536;45.488;12.238;2023-02-28T04:33:30;7.70;61.20
38788;DHT22;24536;45.488;12.238;2023-02-28T04:36:05;7.70;60.70
38788;DHT22;24536;45.488;12.238;2023-02-28T04:38:37;7.70;61.10
38788;DHT22;24536;45.488;12.238;2023-02-28T04:41:03;7.70;61.70
38788;DHT22;24536;45.488;12.238;2023-02-28T04:43:29;7.70;61.20
38788;DHT22;24536;45.488;12.238;2023-02-28T04:45:56;7.70;61.10
38788;DHT22;24536;45.488;12.238;2023-02-28T04:48:27;7.60;61.20
38788;DHT22;24536;45.488;12.238;2023-02-28T04:53:19;7.70;60.80
38788;DHT22;24536;45.488;12.238;2023-02-28T04:55:46;7.60;61.10
38788;DHT22;24536;45.488;12.238;2023-02-28T04:58:12;7.70;61.30
38788;DHT22;24536;45.488;12.238;2023-02-28T05:00:38;7.70;60.80
38788;DHT22;24536;45.488;12.238;2023-02-28T05:03:04;7.70;61.20
38788;DHT22;24536;45.488;12.238;2023-02-28T05:05:30;7.60;61.10
38788;DHT22;24536;45.488;12.238;2023-02-28T05:07:55;7.60;61.10
38788;DHT22;24536;45.488;12.238;2023-02-28T05:10:24;7.60;61.10
38788;DHT22;24536;45.488;12.238;2023-02-28T05:12:50;7.60;60.60
38788;DHT22;24536;45.488;12.238;2023-02-28T05:15:17;7.60;61.00
38788;DHT22;24536;45.488;12.238;2023-02-28T05:17:43;7.60;61.10
38788;DHT22;24536;45.488;12.238;2023-02-28T05:20:10;7.60;60.70
38788;DHT22;24536;45.488;12.238;2023-02-28T05:22:39;7.60;61.10
38788;DHT22;24536;45.488;12.238;2023-02-28T05:25:06;7.50;61.20
38788;DHT22;24536;45.488;12.238;2023-02-28T05:27:32;7.50;61.20
38788;DHT22;24536;45.488;12.238;2023-02-28T05:29:58;7.50;61.20
38788;DHT22;24536;45.488;12.238;2023-02-28T05:34:50;7.50;60.80
38788;DHT22;24536;45.488;12.238;2023-02-28T05:37:16;7.50;60.90
38788;DHT22;24536;45.488;12.238;2023-02-28T05:39:42;7.50;60.70
38788;DHT22;24536;45.488;12.238;2023-02-28T05:42:08;7.50;61.20
38788;DHT22;24536;45.488;12.238;2023-02-28T05:44:35;7.50;61.30
38788;DHT22;24536;45.488;12.238;2023-02-28T05:47:01;7.50;61.30
38788;DHT22;24536;45.488;12.238;2023-02-28T05:49:27;7.50;60.90
38788;DHT22;24536;45.488;12.238;2023-02-28T05:51:53;7.40;60.80
38788;DHT22;24536;45.488;12.238;2023-02-28T05:54:18;7.50;61.50
38788;DHT22;24536;45.488;12.238;2023-02-28T05:56:44;7.50;61.00
38788;DHT22;24536;45.488;12.238;2023-02-28T05:59:11;7.40;61.00
38788;DHT22;24536;45.488;12.238;2023-02-28T06:01:42;7.50;61.00
38788;DHT22;24536;45.488;12.238;2023-02-28T06:04:17;7.40;61.00
38788;DHT22;24536;45.488;12.238;2023-02-28T06:06:48;7.50;61.10
38788;DHT22;24536;45.488;12.238;2023-02-28T06:09:14;7.40;61.60
38788;DHT22;24536;45.488;12.238;2023-02-28T06:11:40;7.40;61.20
38788;DHT22;24536;45.488;12.238;2023-02-28T06:14:06;7.40;61.60
38788;DHT22;24536;45.488;12.238;2023-02-28T06:16:33;7.40;61.20
38788;DHT22;24536;45.488;12.238;2023-02-28T06:19:01;7.40;61.60
38788;DHT22;24536;45.488;12.238;2023-02-28T06:21:27;7.40;61.50
38788;DHT22;24536;45.488;12.238;2023-02-28T06:23:54;7.50;60.90
38788;DHT22;24536;45.488;12.238;2023-02-28T06:26:20;7.40;60.80
38788;DHT22;24536;45.488;12.238;2023-02-28T06:28:46;7.40;61.50
38788;DHT22;24536;45.488;12.238;2023-02-28T06:31:15;7.50;61.80
38788;DHT22;24536;45.488;12.238;2023-02-28T06:33:42;7.50;61.20
38788;DHT22;24536;45.488;12.238;2023-02-28T06:36:09;7.50;61.50
38788;DHT22;24536;45.488;12.238;2023-02-28T06:38:35;7.50;61.40
38788;DHT22;24536;45.488;12.238;2023-02-28T06:41:01;7.40;61.10
38788;DHT22;24536;45.488;12.238;2023-02-28T06:45:56;7.50;61.20
38788;DHT22;24536;45.488;12.238;2023-02-28T06:48:22;7.50;61.50
38788;DHT22;24536;45.488;12.238;2023-02-28T06:50:48;7.60;61.70
38788;DHT22;24536;45.488;12.238;2023-02-28T06:53:14;7.60;61.60
38788;DHT22;24536;45.488;12.238;2023-02-28T06:55:40;7.60;60.80
38788;DHT22;24536;45.488;12.238;2023-02-28T06:58:06;7.60;61.30
38788;DHT22;24536;45.488;12.238;2023-02-28T07:00:41;7.70;61.40
38788;DHT22;24536;45.488;12.238;2023-02-28T07:03:07;7.70;60.90
38788;DHT22;24536;45.488;12.238;2023-02-28T07:05:35;7.70;61.30
38788;DHT22;24536;45.488;12.238;2023-02-28T07:08:01;7.70;60.70
38788;DHT22;24536;45.488;12.238;2023-02-28T07:12:53;7.70;60.90
38788;DHT22;24536;45.488;12.238;2023-02-28T07:15:19;7.80;61.70
38788;DHT22;24536;45.488;12.238;2023-02-28T07:17:45;7.80;61.70
38788;DHT22;24536;45.488;12.238;2023-02-28T07:20:11;7.90;61.30
38788;DHT22;24536;45.488;12.238;2023-02-28T07:27:30;8.00;60.60
38788;DHT22;24536;45.488;12.238;2023-02-28T07:29:56;8.20;63.00
38788;DHT22;24536;45.488;12.238;2023-02-28T07:32:22;8.20;63.00
38788;DHT22;24536;45.488;12.238;2023-02-28T07:34:48;8.30;62.40
38788;DHT22;24536;45.488;12.238;2023-02-28T07:37:14;8.30;61.90
38788;DHT22;24536;45.488;12.238;2023-02-28T07:39:40;8.30;61.90
38788;DHT22;24536;45.488;12.238;2023-02-28T07:42:08;8.40;61.10
38788;DHT22;24536;45.488;12.238;2023-02-28T07:47:09;8.50;61.00
38788;DHT22;24536;45.488;12.238;2023-02-28T07:49:36;8.50;60.90
38788;DHT22;24536;45.488;12.238;2023-02-28T07:52:03;8.60;61.30
38788;DHT22;24536;45.488;12.238;2023-02-28T07:54:29;8.60;60.70
38788;DHT22;24536;45.488;12.238;2023-02-28T07:56:55;8.70;61.00
38788;DHT22;24536;45.488;12.238;2023-02-28T07:59:21;8.70;61.40
38788;DHT22;24536;45.488;12.238;2023-02-28T08:01:46;8.80;61.30
38788;DHT22;24536;45.488;12.238;2023-02-28T08:04:14;8.90;60.80
38788;DHT22;24536;45.488;12.238;2023-02-28T08:06:40;9.00;61.10
38788;DHT22;24536;45.488;12.238;2023-02-28T08:11:36;9.10;60.60
38788;DHT22;24536;45.488;12.238;2023-02-28T08:14:02;9.20;60.90
38788;DHT22;24536;45.488;12.238;2023-02-28T08:16:28;9.20;59.90
38788;DHT22;24536;45.488;12.238;2023-02-28T08:18:54;9.30;59.90
38788;DHT22;24536;45.488;12.238;2023-02-28T08:21:20;9.40;60.30
38788;DHT22;24536;45.488;12.238;2023-02-28T08:23:47;9.50;60.40
38788;DHT22;24536;45.488;12.238;2023-02-28T08:28:40;9.70;58.80
38788;DHT22;24536;45.488;12.238;2023-02-28T08:31:10;9.70;59.50
38788;DHT22;24536;45.488;12.238;2023-02-28T08:33:37;9.70;58.70
38788;DHT22;24536;45.488;12.238;2023-02-28T08:36:05;9.90;59.00
38788;DHT22;24536;45.488;12.238;2023-02-28T08:38:31;9.80;59.40
38788;DHT22;24536;45.488;12.238;2023-02-28T08:40:58;10.10;58.00
38788;DHT22;24536;45.488;12.238;2023-02-28T08:43:24;10.10;58.00
38788;DHT22;24536;45.488;12.238;2023-02-28T08:45:54;10.20;58.00
38788;DHT22;24536;45.488;12.238;2023-02-28T08:48:26;10.20;57.70
38788;DHT22;24536;45.488;12.238;2023-02-28T08:51:07;10.30;57.90
38788;DHT22;24536;45.488;12.238;2023-02-28T08:53:35;10.20;57.60
38788;DHT22;24536;45.488;12.238;2023-02-28T08:56:04;10.40;57.30
38788;DHT22;24536;45.488;12.238;2023-02-28T08:58:30;10.50;57.40
38788;DHT22;24536;45.488;12.238;2023-02-28T09:00:56;10.60;58.00
38788;DHT22;24536;45.488;12.238;2023-02-28T09:03:23;10.70;56.90
38788;DHT22;24536;45.488;12.238;2023-02-28T09:05:56;10.90;57.30
38788;DHT22;24536;45.488;12.238;2023-02-28T09:08:23;10.90;55.50
38788;DHT22;24536;45.488;12.238;2023-02-28T09:10:50;10.90;54.90
38788;DHT22;24536;45.488;12.238;2023-02-28T09:13:16;11.00;55.70
38788;DHT22;24536;45.488;12.238;2023-02-28T09:15:42;11.30;55.40
38788;DHT22;24536;45.488;12.238;2023-02-28T09:18:08;11.30;56.40
38788;DHT22;24536;45.488;12.238;2023-02-28T09:20:33;11.50;56.00
38788;DHT22;24536;45.488;12.238;2023-02-28T09:22:59;11.50;54.60
38788;DHT22;24536;45.488;12.238;2023-02-28T09:25:25;11.50;55.60
38788;DHT22;24536;45.488;12.238;2023-02-28T09:27:50;11.50;55.10
38788;DHT22;24536;45.488;12.238;2023-02-28T09:30:16;11.40;54.50
38788;DHT22;24536;45.488;12.238;2023-02-28T09:32:42;11.40;55.60
38788;DHT22;24536;45.488;12.238;2023-02-28T09:35:08;11.40;55.70
38788;DHT22;24536;45.488;12.238;2023-02-28T09:37:38;11.30;55.00
38788;DHT22;24536;45.488;12.238;2023-02-28T09:40:05;11.30;55.40
38788;DHT22;24536;45.488;12.238;2023-02-28T09:42:32;11.30;56.00
38788;DHT22;24536;45.488;12.238;2023-02-28T09:45:00;11.30;56.20
38788;DHT22;24536;45.488;12.238;2023-02-28T09:47:29;11.50;56.60
38788;DHT22;24536;45.488;12.238;2023-02-28T09:49:59;11.60;55.10
38788;DHT22;24536;45.488;12.238;2023-02-28T09:52:38;11.90;54.60
38788;DHT22;24536;45.488;12.238;2023-02-28T09:55:37;12.00;54.70
38788;DHT22;24536;45.488;12.238;2023-02-28T09:58:05;12.10;54.10
38788;DHT22;24536;45.488;12.238;2023-02-28T10:00:39;12.20;55.30
38788;DHT22;24536;45.488;12.238;2023-02-28T10:03:24;12.40;55.30
38788;DHT22;24536;45.488;12.238;2023-02-28T10:05:57;12.70;53.90
38788;DHT22;24536;45.488;12.238;2023-02-28T10:08:36;12.80;53.60
38788;DHT22;24536;45.488;12.238;2023-02-28T10:11:07;12.80;52.80
38788;DHT22;24536;45.488;12.238;2023-02-28T10:13:53;12.80;53.70
38788;DHT22;24536;45.488;12.238;2023-02-28T10:22:16;12.70;53.00
38788;DHT22;24536;45.488;12.238;2023-02-28T10:24:48;13.10;53.50
38788;DHT22;24536;45.488;12.238;2023-02-28T10:29:49;12.90;52.30
38788;DHT22;24536;45.488;12.238;2023-02-28T10:32:20;13.00;53.20
38788;DHT22;24536;45.488;12.238;2023-02-28T10:37:42;13.30;52.50
38788;DHT22;24536;45.488;12.238;2023-02-28T10:40:28;13.40;52.80
38788;DHT22;24536;45.488;12.238;2023-02-28T10:45:39;13.50;52.50
38788;DHT22;24536;45.488;12.238;2023-02-28T10:51:18;14.00;52.30
38788;DHT22;24536;45.488;12.238;2023-02-28T10:53:54;14.20;52.20
38788;DHT22;24536;45.488;12.238;2023-02-28T10:56:28;14.30;51.90
38788;DHT22;24536;45.488;12.238;2023-02-28T11:01:45;14.10;51.40
38788;DHT22;24536;45.488;12.238;2023-02-28T11:04:35;14.20;50.90
38788;DHT22;24536;45.488;12.238;2023-02-28T11:07:11;14.20;51.20
38788;DHT22;24536;45.488;12.238;2023-02-28T11:09:41;14.30;51.30
38788;DHT22;24536;45.488;12.238;2023-02-28T11:12:34;14.40;51.40
38788;DHT22;24536;45.488;12.238;2023-02-28T11:15:05;14.40;50.80
38788;DHT22;24536;45.488;12.238;2023-02-28T11:17:32;14.50;51.10
38788;DHT22;24536;45.488;12.238;2023-02-28T11:20:18;14.60;51.20
38788;DHT22;24536;45.488;12.238;2023-02-28T11:22:45;14.60;50.90
38788;DHT22;24536;45.488;12.238;2023-02-28T11:25:32;14.60;51.00
38788;DHT22;24536;45.488;12.238;2023-02-28T11:28:01;14.50;50.30
38788;DHT22;24536;45.488;12.238;2023-02-28T11:32:53;14.50;50.60
38788;DHT22;24536;45.488;12.238;2023-02-28T11:35:39;14.40;50.30
38788;DHT22;24536;45.488;12.238;2023-02-28T11:38:10;14.50;50.40
38788;DHT22;24536;45.488;12.238;2023-02-28T11:41:01;14.50;50.70
38788;DHT22;24536;45.488;12.238;2023-02-28T11:49:30;14.60;51.40
38788;DHT22;24536;45.488;12.238;2023-02-28T12:20:25;17.80;48.00
38788;DHT22;24536;45.488;12.238;2023-02-28T12:23:10;18.90;50.40
38788;DHT22;24536;45.488;12.238;2023-02-28T12:26:27;20.10;46.50
38788;DHT22;24536;45.488;12.238;2023-02-28T12:28:40;21.20;43.50
38788;DHT22;24536;45.488;12.238;2023-02-28T12:31:18;21.80;41.10
38788;DHT22;24536;45.488;12.238;2023-02-28T12:34:03;21.90;40.70
38788;DHT22;24536;45.488;12.238;2023-02-28T12:36:30;22.20;40.50
38788;DHT22;24536;45.488;12.238;2023-02-28T12:39:00;22.30;39.30
38788;DHT22;24536;45.488;12.238;2023-02-28T12:41:28;22.40;39.10
38788;DHT22;24536;45.488;12.238;2023-02-28T12:47:05;22.40;36.90
38788;DHT22;24536;45.488;12.238;2023-02-28T12:50:03;22.40;37.20
38788;DHT22;24536;45.488;12.238;2023-02-28T12:52:56;22.40;37.70
38788;DHT22;24536;45.488;12.238;2023-02-28T12:58:08;22.70;37.70
38788;DHT22;24536;45.488;12.238;2023-02-28T13:00:43;22.90;37.40
38788;DHT22;24536;45.488;12.238;2023-02-28T13:03:41;23.10;36.40
38788;DHT22;24536;45.488;12.238;2023-02-28T13:06:23;23.40;36.30
38788;DHT22;24536;45.488;12.238;2023-02-28T13:11:49;23.50;35.60
38788;DHT22;24536;45.488;12.238;2023-02-28T13:14:28;23.40;34.50
38788;DHT22;24536;45.488;12.238;2023-02-28T13:16:57;23.40;34.80
38788;DHT22;24536;45.488;12.238;2023-02-28T13:19:27;23.20;34.80
38788;DHT22;24536;45.488;12.238;2023-02-28T13:21:55;22.90;34.70
38788;DHT22;24536;45.488;12.238;2023-02-28T13:24:42;22.40;35.00
38788;DHT22;24536;45.488;12.238;2023-02-28T13:29:41;20.40;37.30
38788;DHT22;24536;45.488;12.238;2023-02-28T13:42:37;18.20;41.80
38788;DHT22;24536;45.488;12.238;2023-02-28T13:45:27;17.40;42.80
38788;DHT22;24536;45.488;12.238;2023-02-28T13:48:01;17.10;43.20
38788;DHT22;24536;45.488;12.238;2023-02-28T13:50:37;17.00;43.20
38788;DHT22;24536;45.488;12.238;2023-02-28T14:06:53;15.70;46.50
38788;DHT22;24536;45.488;12.238;2023-02-28T14:09:47;15.60;47.10
38788;DHT22;24536;45.488;12.238;2023-02-28T14:18:13;15.20;48.20
38788;DHT22;24536;45.488;12.238;2023-02-28T14:20:40;15.10;48.20
38788;DHT22;24536;45.488;12.238;2023-02-28T14:23:35;15.00;48.20
38788;DHT22;24536;45.488;12.238;2023-02-28T14:26:38;14.90;48.80
38788;DHT22;24536;45.488;12.238;2023-02-28T14:29:53;14.80;49.00
38788;DHT22;24536;45.488;12.238;2023-02-28T14:32:35;14.70;49.60
38788;DHT22;24536;45.488;12.238;2023-02-28T14:37:45;14.60;50.00
38788;DHT22;24536;45.488;12.238;2023-02-28T14:40:28;14.50;50.00
38788;DHT22;24536;45.488;12.238;2023-02-28T14:42:58;14.50;50.70
38788;DHT22;24536;45.488;12.238;2023-02-28T14:45:25;14.50;50.80
38788;DHT22;24536;45.488;12.238;2023-02-28T14:47:52;14.50;51.20
38788;DHT22;24536;45.488;12.238;2023-02-28T14:50:21;14.50;51.30
38788;DHT22;24536;45.488;12.238;2023-02-28T14:52:49;14.40;51.50
38788;DHT22;24536;45.488;12.238;2023-02-28T14:55:18;14.30;51.40
38788;DHT22;24536;45.488;12.238;2023-02-28T14:57:56;14.30;51.90
38788;DHT22;24536;45.488;12.238;2023-02-28T15:00:29;14.30;51.90
38788;DHT22;24536;45.488;12.238;2023-02-28T15:02:56;14.20;51.60
38788;DHT22;24536;45.488;12.238;2023-02-28T15:05:26;14.20;51.80
38788;DHT22;24536;45.488;12.238;2023-02-28T15:08:14;14.10;52.10
38788;DHT22;24536;45.488;12.238;2023-02-28T15:10:59;14.00;51.20
38788;DHT22;24536;45.488;12.238;2023-02-28T15:13:44;14.00;51.10
38788;DHT22;24536;45.488;12.238;2023-02-28T15:16:20;13.80;51.50
38788;DHT22;24536;45.488;12.238;2023-02-28T15:21:39;13.70;52.00
38788;DHT22;24536;45.488;12.238;2023-02-28T15:24:10;13.70;51.90
38788;DHT22;24536;45.488;12.238;2023-02-28T15:26:43;13.50;51.60
38788;DHT22;24536;45.488;12.238;2023-02-28T15:29:17;13.30;52.10
38788;DHT22;24536;45.488;12.238;2023-02-28T15:32:06;13.30;52.50
38788;DHT22;24536;45.488;12.238;2023-02-28T15:34:43;13.20;52.20
38788;DHT22;24536;45.488;12.238;2023-02-28T15:39:57;13.20;52.90
38788;DHT22;24536;45.488;12.238;2023-02-28T15:42:28;13.10;52.90
38788;DHT22;24536;45.488;12.238;2023-02-28T15:44:55;13.20;53.30
38788;DHT22;24536;45.488;12.238;2023-02-28T15:47:48;13.10;53.90
38788;DHT22;24536;45.488;12.238;2023-02-28T15:50:16;13.10;54.10
38788;DHT22;24536;45.488;12.238;2023-02-28T15:52:43;13.00;53.80
38788;DHT22;24536;45.488;12.238;2023-02-28T15:55:20;12.90;53.40
38788;DHT22;24536;45.488;12.238;2023-02-28T15:57:50;12.90;54.20
38788;DHT22;24536;45.488;12.238;2023-02-28T16:00:19;12.80;54.20
38788;DHT22;24536;45.488;12.238;2023-02-28T16:02:45;12.70;54.90
38788;DHT22;24536;45.488;12.238;2023-02-28T16:07:41;12.60;54.90
38788;DHT22;24536;45.488;12.238;2023-02-28T16:10:11;12.60;55.30
38788;DHT22;24536;45.488;12.238;2023-02-28T16:12:38;12.50;54.90
38788;DHT22;24536;45.488;12.238;2023-02-28T16:17:42;12.50;54.70
38788;DHT22;24536;45.488;12.238;2023-02-28T16:22:43;12.50;55.30
38788;DHT22;24536;45.488;12.238;2023-02-28T16:25:17;12.50;55.50
38788;DHT22;24536;45.488;12.238;2023-02-28T16:27:46;12.40;55.40
38788;DHT22;24536;45.488;12.238;2023-02-28T16:30:20;12.40;55.50
38788;DHT22;24536;45.488;12.238;2023-02-28T16:32:47;12.40;55.50
38788;DHT22;24536;45.488;12.238;2023-02-28T16:35:14;12.50;55.50
38788;DHT22;24536;45.488;12.238;2023-02-28T16:37:40;12.50;55.70
38788;DHT22;24536;45.488;12.238;2023-02-28T16:40:09;12.50;55.80
38788;DHT22;24536;45.488;12.238;2023-02-28T16:42:38;12.40;56.00
38788;DHT22;24536;45.488;12.238;2023-02-28T16:45:04;12.30;55.90
38788;DHT22;24536;45.488;12.238;2023-02-28T16:47:31;12.20;55.70
38788;DHT22;24536;45.488;12.238;2023-02-28T16:49:58;12.20;56.20
38788;DHT22;24536;45.488;12.238;2023-02-28T16:52:23;12.20;56.50
38788;DHT22;24536;45.488;12.238;2023-02-28T16:54:49;12.00;56.40
38788;DHT22;24536;45.488;12.238;2023-02-28T16:57:22;12.00;56.40
38788;DHT22;24536;45.488;12.238;2023-02-28T16:59:49;12.00;56.10
38788;DHT22;24536;45.488;12.238;2023-02-28T17:02:18;12.00;56.00
38788;DHT22;24536;45.488;12.238;2023-02-28T17:04:45;12.00;56.50
38788;DHT22;24536;45.488;12.238;2023-02-28T17:07:13;11.90;55.40
38788;DHT22;24536;45.488;12.238;2023-02-28T17:09:39;11.80;55.40
38788;DHT22;24536;45.488;12.238;2023-02-28T17:12:06;11.80;54.90
38788;DHT22;24536;45.488;12.238;2023-02-28T17:14:31;11.80;55.30
38788;DHT22;24536;45.488;12.238;2023-02-28T17:16:57;11.80;55.40
38788;DHT22;24536;45.488;12.238;2023-02-28T17:19:23;11.80;55.60
38788;DHT22;24536;45.488;12.238;2023-02-28T17:21:49;11.70;55.40
38788;DHT22;24536;45.488;12.238;2023-02-28T17:24:14;11.60;55.30
38788;DHT22;24536;45.488;12.238;2023-02-28T17:26:41;11.70;55.40
38788;DHT22;24536;45.488;12.238;2023-02-28T17:29:19;11.60;55.30
38788;DHT22;24536;45.488;12.238;2023-02-28T17:31:45;11.50;55.70
38788;DHT22;24536;45.488;12.238;2023-02-28T17:34:11;11.50;55.60
38788;DHT22;24536;45.488;12.238;2023-02-28T17:36:37;11.50;55.70
38788;DHT22;24536;45.488;12.238;2023-02-28T17:39:04;11.40;55.00
38788;DHT22;24536;45.488;12.238;2023-02-28T17:41:31;11.30;55.60
38788;DHT22;24536;45.488;12.238;2023-02-28T17:43:57;11.00;55.40
38788;DHT22;24536;45.488;12.238;2023-02-28T17:46:24;11.00;55.90
38788;DHT22;24536;45.488;12.238;2023-02-28T17:48:51;11.00;55.90
38788;DHT22;24536;45.488;12.238;2023-02-28T17:51:18;11.00;55.60
38788;DHT22;24536;45.488;12.238;2023-02-28T17:53:44;11.00;56.00
38788;DHT22;24536;45.488;12.238;2023-02-28T17:56:17;10.80;55.70
38788;DHT22;24536;45.488;12.238;2023-02-28T17:58:43;10.90;56.20
38788;DHT22;24536;45.488;12.238;2023-02-28T18:01:09;10.80;55.80
38788;DHT22;24536;45.488;12.238;2023-02-28T18:03:35;10.90;56.10
38788;DHT22;24536;45.488;12.238;2023-02-28T18:06:02;10.80;56.50
38788;DHT22;24536;45.488;12.238;2023-02-28T18:08:28;10.80;56.50
38788;DHT22;24536;45.488;12.238;2023-02-28T18:10:53;10.70;56.10
38788;DHT22;24536;45.488;12.238;2023-02-28T18:13:19;10.70;56.50
38788;DHT22;24536;45.488;12.238;2023-02-28T18:15:44;10.60;56.70
38788;DHT22;24536;45.488;12.238;2023-02-28T18:18:10;10.60;57.00
38788;DHT22;24536;45.488;12.238;2023-02-28T18:20:39;10.60;57.00
38788;DHT22;24536;45.488;12.238;2023-02-28T18:23:04;10.50;57.10
38788;DHT22;24536;45.488;12.238;2023-02-28T18:25:30;10.50;57.20
38788;DHT22;24536;45.488;12.238;2023-02-28T18:27:56;10.40;56.70
38788;DHT22;24536;45.488;12.238;2023-02-28T18:30:28;10.50;56.90
38788;DHT22;24536;45.488;12.238;2023-02-28T18:32:56;10.50;56.90
38788;DHT22;24536;45.488;12.238;2023-02-28T18:35:23;10.40;56.80
38788;DHT22;24536;45.488;12.238;2023-02-28T18:38:17;10.30;57.40